LFSN/ENC METAR and TAF weather

Enter ICAO airport designator
Station Type Date Time Source
LFSN METAR 2019/06/26 16:00 UTC NOAA

LFSN 261600Z AUTO 02004KT 330V110 CAVOK 37/14 Q1021


Station Type Date Time Source
LFSN Decoded METAR 2019/06/26 16:00 UTC NOAA

Nancy / Essey, France (LFSN) 48-41N 006-13E 217M
Jun 26, 2019 - 12:00 PM EDT / 2019.06.26 1600 UTC
Wind: from the NNE (020 degrees) at 5 MPH (4 KT) (direction variable):0
Visibility: greater than 7 mile(s):0
Temperature: 98 F (37 C)
Heat index: 96.8 F (36.0 C):1
Dew Point: 57 F (14 C)
Relative Humidity: 25%
Pressure (altimeter): 30.15 in. Hg (1021 hPa)
ob: LFSN 261600Z AUTO 02004KT 330V110 CAVOK 37/14 Q1021
cycle: 16

Station Type Date Time Source
LFSN TAF 2012/03/14 16:58 UTC NOAA

TAF LFSN 141600Z 1416/1512 CNL

Example: see airport list